Time;durP1;ratioP1;P1;durP2;ratioP2;P2;SDS_P1;SDS_P2;PMS_P1;PMS_P2;Temp;Humidity;BMP_temperature;BMP_pressure;BME280_temperature;BME280_humidity;BME280_pressure;Samples;Min_cycle;Max_cycle;Signal;HPM_P1;HPM_P2
2023/08/12 00:01:14;;;;;;;6.05;3.90;;;28.60;95.00;;;;;;10096912;28;20033;-66
2023/08/12 00:06:05;;;;;;;6.47;4.82;;;28.60;95.00;;;;;;10080489;28;20681;-66
2023/08/12 00:10:55;;;;;;;4.13;3.45;;;28.40;95.30;;;;;;10078652;28;20048;-67
2023/08/12 00:15:46;;;;;;;6.85;3.78;;;28.40;95.40;;;;;;10098663;28;20380;-67
2023/08/12 00:20:37;;;;;;;6.70;3.92;;;28.30;95.60;;;;;;10097367;28;20441;-66
2023/08/12 00:25:28;;;;;;;6.57;4.78;;;28.30;95.70;;;;;;10096341;28;20025;-67
2023/08/12 00:30:19;;;;;;;4.38;3.55;;;28.10;96.00;;;;;;10096448;28;20048;-67
2023/08/12 00:35:09;;;;;;;6.93;3.92;;;27.90;96.40;;;;;;10097101;28;20021;-67
2023/08/12 00:40:00;;;;;;;5.85;4.85;;;27.90;96.60;;;;;;10096894;28;20475;-67
2023/08/12 00:44:51;;;;;;;6.38;3.58;;;27.80;96.70;;;;;;10096873;28;20100;-67
2023/08/12 00:49:44;;;;;;;7.18;4.47;;;27.80;97.00;;;;;;10104646;28;20491;-67
2023/08/12 00:54:35;;;;;;;5.43;4.00;;;27.80;97.10;;;;;;10086440;28;20501;-67
2023/08/12 00:59:26;;;;;;;7.72;4.63;;;27.90;97.10;;;;;;10104470;28;20055;-66
2023/08/12 01:04:17;;;;;;;7.88;4.72;;;27.80;97.20;;;;;;10085661;28;20494;-66
2023/08/12 01:09:07;;;;;;;5.47;4.03;;;27.70;97.30;;;;;;10103292;28;20048;-66
2023/08/12 01:14:22;;;;;;;6.50;3.97;;;27.80;97.40;;;;;;10101351;28;20090;-66
2023/08/12 01:19:24;;;;;;;;;;;27.80;97.40;;;;;;10103799;28;20037;-67
2023/08/12 01:24:14;;;;;;;4.80;3.22;;;27.70;97.60;;;;;;10103061;28;19912;-67
2023/08/12 01:29:05;;;;;;;4.15;2.78;;;27.70;97.30;;;;;;10103353;28;20494;-67
2023/08/12 01:34:16;;;;;;;4.05;3.30;;;27.70;97.40;;;;;;10103020;28;20029;-67
2023/08/12 01:39:09;;;;;;;3.15;2.35;;;27.70;97.30;;;;;;10102869;28;20091;-67
2023/08/12 01:44:01;;;;;;;5.45;2.72;;;27.70;97.30;;;;;;10102382;28;20032;-68
2023/08/12 01:48:52;;;;;;;5.10;2.85;;;27.60;97.60;;;;;;10102320;28;20033;-67
2023/08/12 01:53:42;;;;;;;2.92;2.60;;;27.70;97.30;;;;;;10101871;28;20020;-68
2023/08/12 01:58:33;;;;;;;4.32;2.45;;;27.60;97.30;;;;;;10083431;28;20029;-68
2023/08/12 02:03:23;;;;;;;4.15;2.03;;;27.70;97.30;;;;;;10101812;28;20080;-67
2023/08/12 02:08:14;;;;;;;5.05;2.58;;;27.70;97.50;;;;;;10100745;28;20041;-67
2023/08/12 02:13:05;;;;;;;4.13;2.50;;;27.50;97.60;;;;;;10094792;28;20048;-68
2023/08/12 02:17:55;;;;;;;5.53;2.40;;;27.70;97.40;;;;;;10102709;28;20056;-68
2023/08/12 02:22:46;;;;;;;2.83;2.42;;;27.60;97.40;;;;;;10100822;28;20017;-67
2023/08/12 02:27:37;;;;;;;4.38;2.40;;;27.60;97.50;;;;;;10100987;28;20041;-68
2023/08/12 02:32:27;;;;;;;5.07;2.50;;;27.50;97.70;;;;;;10100606;28;20536;-69
2023/08/12 02:37:18;;;;;;;5.35;2.20;;;27.40;98.00;;;;;;10101909;28;20107;-67
2023/08/12 02:42:09;;;;;;;3.67;2.55;;;27.50;98.00;;;;;;10100216;28;20028;-67
2023/08/12 02:47:00;;;;;;;7.60;3.15;;;27.40;98.20;;;;;;10100120;28;20033;-67
2023/08/12 02:51:50;;;;;;;2.70;1.92;;;27.30;98.40;;;;;;10099949;28;20623;-68
2023/08/12 02:56:41;;;;;;;3.10;2.38;;;27.30;98.50;;;;;;10099805;28;20086;-67
2023/08/12 03:01:32;;;;;;;5.72;2.47;;;27.30;98.90;;;;;;10097755;28;20107;-67
2023/08/12 03:06:22;;;;;;;4.03;2.50;;;27.30;98.90;;;;;;10090387;28;22091;-66
2023/08/12 03:11:13;;;;;;;3.25;2.42;;;27.30;99.10;;;;;;10092977;28;20062;-67
2023/08/12 03:16:04;;;;;;;4.82;2.95;;;27.10;99.40;;;;;;10099610;28;20499;-67
2023/08/12 03:20:54;;;;;;;2.92;2.40;;;27.00;99.70;;;;;;10098009;28;20033;-67
2023/08/12 03:25:48;;;;;;;4.82;2.05;;;26.90;99.90;;;;;;10098980;28;20040;-66
2023/08/12 03:30:38;;;;;;;6.13;2.67;;;26.80;99.90;;;;;;10098363;28;20171;-66
2023/08/12 03:35:29;;;;;;;8.13;3.30;;;26.80;99.90;;;;;;10098624;28;20029;-67
2023/08/12 03:40:20;;;;;;;5.43;3.20;;;26.70;99.90;;;;;;10098558;28;20021;-66
2023/08/12 03:45:11;;;;;;;5.20;3.00;;;26.50;99.90;;;;;;10098488;28;20368;-67
2023/08/12 03:50:01;;;;;;;3.53;2.75;;;26.30;99.90;;;;;;10098037;28;20326;-67
2023/08/12 03:54:53;;;;;;;3.90;3.47;;;26.30;99.90;;;;;;10097427;28;20079;-67
2023/08/12 03:59:43;;;;;;;7.13;4.13;;;26.20;99.90;;;;;;10079600;28;20025;-67
2023/08/12 04:04:34;;;;;;;6.20;3.20;;;26.10;99.90;;;;;;10097299;28;20116;-67
2023/08/12 04:09:24;;;;;;;5.47;3.45;;;26.10;99.90;;;;;;10096352;28;20037;-67
2023/08/12 04:14:15;;;;;;;7.15;3.33;;;25.90;99.90;;;;;;10097381;28;20538;-67
2023/08/12 04:19:06;;;;;;;3.72;3.10;;;26.00;99.90;;;;;;10098280;28;20051;-67
2023/08/12 04:23:56;;;;;;;4.70;2.63;;;26.00;99.90;;;;;;10096398;28;20258;-67
2023/08/12 04:28:47;;;;;;;4.18;2.95;;;25.90;99.90;;;;;;10078500;28;20075;-69
2023/08/12 04:33:37;;;;;;;4.72;3.25;;;25.90;99.90;;;;;;10096610;28;20025;-67
2023/08/12 04:38:28;;;;;;;4.68;3.65;;;25.90;99.90;;;;;;10097472;28;20445;-67
2023/08/12 04:43:19;;;;;;;5.10;3.70;;;25.90;99.90;;;;;;10096586;28;20410;-69
2023/08/12 04:48:10;;;;;;;4.13;3.35;;;25.90;99.90;;;;;;10096654;28;20402;-69
2023/08/12 04:53:01;;;;;;;5.68;3.78;;;26.00;99.90;;;;;;10096180;28;20269;-69
2023/08/12 04:57:52;;;;;;;4.80;3.22;;;25.90;99.90;;;;;;10100322;28;20120;-69
2023/08/12 05:02:43;;;;;;;4.63;3.17;;;25.90;99.90;;;;;;10073619;28;20104;-68
2023/08/12 05:07:33;;;;;;;10.13;4.13;;;25.90;99.90;;;;;;10076514;28;20121;-68
2023/08/12 05:12:24;;;;;;;4.80;3.70;;;25.90;99.90;;;;;;10086621;28;20521;-68
2023/08/12 05:17:15;;;;;;;6.20;4.00;;;26.10;99.90;;;;;;10089716;28;20029;-68
2023/08/12 05:22:05;;;;;;;6.57;4.70;;;26.00;99.90;;;;;;10077233;28;20036;-68
2023/08/12 05:26:56;;;;;;;6.18;4.22;;;26.30;99.90;;;;;;10093061;28;20029;-68
2023/08/12 05:31:47;;;;;;;8.98;4.82;;;26.20;99.90;;;;;;10083362;28;20036;-67
2023/08/12 05:36:37;;;;;;;6.88;4.57;;;26.20;99.90;;;;;;10098223;28;20126;-68
2023/08/12 05:41:28;;;;;;;8.82;4.38;;;26.10;99.90;;;;;;10097943;28;20025;-67
2023/08/12 05:46:18;;;;;;;9.02;4.32;;;26.10;99.90;;;;;;10082249;28;20419;-68
2023/08/12 05:51:10;;;;;;;15.45;3.88;;;26.20;99.90;;;;;;10102176;28;20040;-68
2023/08/12 05:56:00;;;;;;;7.90;3.85;;;26.00;99.90;;;;;;10103149;28;20017;-68
2023/08/12 06:00:51;;;;;;;4.40;3.60;;;26.10;99.90;;;;;;10102062;28;20037;-66
2023/08/12 06:05:45;;;;;;;8.00;4.03;;;25.90;99.90;;;;;;10102892;28;20036;-67
2023/08/12 06:10:36;;;;;;;6.35;3.25;;;26.10;99.90;;;;;;10101093;28;20041;-68
2023/08/12 06:15:26;;;;;;;6.63;3.47;;;26.10;99.90;;;;;;10103631;28;20040;-66
2023/08/12 06:20:17;;;;;;;7.68;3.30;;;26.10;99.90;;;;;;10101494;28;20029;-67
2023/08/12 06:25:08;;;;;;;4.25;3.50;;;26.30;99.90;;;;;;10101611;28;20088;-67
2023/08/12 06:29:59;;;;;;;5.68;3.17;;;26.10;99.90;;;;;;10101147;28;20044;-67
2023/08/12 06:34:49;;;;;;;6.95;3.70;;;26.10;99.90;;;;;;10100732;28;20036;-67
2023/08/12 06:39:40;;;;;;;6.45;3.10;;;26.30;99.90;;;;;;10100849;28;20115;-67
2023/08/12 06:44:30;;;;;;;5.43;3.40;;;26.40;99.90;;;;;;10099765;28;20037;-67
2023/08/12 06:49:21;;;;;;;4.82;3.40;;;26.50;99.90;;;;;;10100260;28;20095;-68
2023/08/12 06:54:12;;;;;;;6.93;3.33;;;26.50;99.90;;;;;;10100372;28;20025;-67
2023/08/12 06:59:02;;;;;;;4.32;3.03;;;26.60;99.90;;;;;;10100612;28;20025;-67
2023/08/12 07:03:53;;;;;;;7.15;3.30;;;26.60;99.90;;;;;;10098437;28;20453;-67
2023/08/12 07:08:44;;;;;;;6.35;3.60;;;26.70;99.90;;;;;;10081111;28;20036;-68
2023/08/12 07:13:34;;;;;;;4.78;3.03;;;26.70;99.90;;;;;;10100058;28;20064;-70
2023/08/12 07:18:25;;;;;;;4.22;2.92;;;26.80;99.90;;;;;;10100104;28;20025;-69
2023/08/12 07:23:16;;;;;;;4.05;2.78;;;26.80;99.90;;;;;;10098094;28;20465;-67
2023/08/12 07:28:07;;;;;;;6.53;3.13;;;26.80;99.90;;;;;;10098910;28;20474;-68
2023/08/12 07:32:57;;;;;;;5.07;3.05;;;26.80;99.90;;;;;;10080628;28;20097;-69
2023/08/12 07:37:48;;;;;;;4.80;2.97;;;26.80;99.90;;;;;;10098198;28;20504;-68
2023/08/12 07:42:39;;;;;;;4.63;3.13;;;26.80;99.90;;;;;;10098609;28;20075;-69
2023/08/12 07:47:29;;;;;;;4.70;3.45;;;26.90;99.90;;;;;;10073810;28;20033;-70
2023/08/12 07:52:20;;;;;;;4.28;2.92;;;26.90;99.90;;;;;;10085308;28;20032;-68
2023/08/12 07:57:10;;;;;;;5.05;3.30;;;26.80;99.90;;;;;;10092637;28;20029;-68
2023/08/12 08:02:01;;;;;;;6.53;3.47;;;26.90;99.90;;;;;;10096581;28;20029;-69
2023/08/12 08:06:52;;;;;;;7.60;4.15;;;26.80;99.90;;;;;;10092075;28;20055;-69
2023/08/12 08:11:42;;;;;;;5.40;3.30;;;26.80;99.90;;;;;;10097079;28;20051;-69
2023/08/12 08:16:33;;;;;;;6.95;3.70;;;27.00;99.90;;;;;;10101396;28;20437;-69
2023/08/12 08:21:24;;;;;;;9.85;4.25;;;27.00;99.90;;;;;;10078689;28;20029;-68
2023/08/12 08:26:15;;;;;;;7.85;3.85;;;27.10;99.90;;;;;;10096648;28;20029;-69
2023/08/12 08:31:06;;;;;;;6.93;4.25;;;26.90;99.90;;;;;;10091274;28;20036;-69
2023/08/12 08:35:57;;;;;;;5.43;3.78;;;27.00;99.90;;;;;;10096284;28;20530;-68
2023/08/12 08:40:50;;;;;;;5.35;3.45;;;27.00;99.90;;;;;;10097615;28;20032;-65
2023/08/12 08:45:43;;;;;;;50.87;31.60;;;27.10;99.90;;;;;;10093337;28;20612;-65
2023/08/12 08:50:35;;;;;;;11.95;8.30;;;27.20;99.90;;;;;;10091868;28;20403;-66
2023/08/12 08:55:25;;;;;;;9.88;4.40;;;27.30;99.90;;;;;;10089380;28;20025;-67
2023/08/12 09:00:17;;;;;;;7.00;4.15;;;27.20;99.90;;;;;;10090353;28;20041;-67
2023/08/12 09:05:08;;;;;;;4.75;3.47;;;27.20;99.90;;;;;;10046416;28;20402;-67
2023/08/12 09:10:01;;;;;;;4.22;3.08;;;27.40;99.90;;;;;;10101479;28;20029;-68
2023/08/12 09:14:52;;;;;;;5.25;3.38;;;27.50;99.90;;;;;;10091622;28;20403;-67
2023/08/12 09:19:42;;;;;;;4.40;3.08;;;27.60;99.90;;;;;;10085817;28;20509;-68
2023/08/12 09:24:33;;;;;;;4.32;2.97;;;27.70;99.90;;;;;;10103215;28;20029;-67
2023/08/12 09:29:31;;;;;;;4.97;3.47;;;27.60;99.90;;;;;;10103575;28;20051;-67
2023/08/12 09:34:24;;;;;;;5.72;3.35;;;27.80;99.90;;;;;;10101592;28;20033;-66
2023/08/12 09:39:15;;;;;;;3.97;2.67;;;27.70;99.90;;;;;;10084066;28;20021;-66
2023/08/12 09:44:06;;;;;;;3.20;2.70;;;27.80;99.90;;;;;;10091831;28;20017;-67
2023/08/12 09:48:58;;;;;;;3.83;2.72;;;27.90;99.90;;;;;;10102613;28;20033;-67
2023/08/12 09:53:50;;;;;;;6.80;2.92;;;28.00;99.90;;;;;;10092516;28;20100;-70
2023/08/12 09:58:43;;;;;;;4.43;2.72;;;28.10;99.90;;;;;;10069147;28;20056;-68
2023/08/12 10:03:35;;;;;;;4.43;3.17;;;28.10;99.90;;;;;;10068393;28;20029;-68
2023/08/12 10:08:28;;;;;;;4.85;3.25;;;28.00;99.90;;;;;;10095595;28;20102;-68
2023/08/12 10:13:22;;;;;;;5.80;2.97;;;27.90;99.90;;;;;;10074993;28;20106;-69
2023/08/12 10:18:14;;;;;;;3.07;2.77;;;28.00;99.90;;;;;;10098030;28;20063;-68
2023/08/12 10:23:10;;;;;;;6.07;3.05;;;27.90;99.90;;;;;;10097466;28;20041;-70
2023/08/12 10:28:04;;;;;;;4.72;3.17;;;27.90;99.90;;;;;;10079706;28;20041;-70
2023/08/12 10:32:55;;;;;;;3.80;3.22;;;28.00;99.90;;;;;;10075559;28;20455;-69
2023/08/12 10:37:53;;;;;;;5.95;3.33;;;28.00;99.90;;;;;;10073007;28;20125;-69
2023/08/12 10:42:45;;;;;;;3.30;2.90;;;28.10;99.90;;;;;;10083615;28;20025;-69
2023/08/12 10:47:48;;;;;;;3.92;3.13;;;28.30;99.90;;;;;;10098049;28;20388;-69
2023/08/12 10:52:39;;;;;;;4.40;3.17;;;28.20;99.90;;;;;;10098689;28;20021;-68
2023/08/12 10:57:40;;;;;;;6.43;3.13;;;28.20;99.90;;;;;;10099247;28;20078;-68
2023/08/12 11:02:36;;;;;;;4.82;3.00;;;28.20;99.90;;;;;;10096923;28;20037;-69
2023/08/12 11:07:50;;;;;;;4.85;3.35;;;28.20;99.90;;;;;;10074803;28;20033;-69
2023/08/12 11:12:47;;;;;;;5.28;3.10;;;28.00;99.90;;;;;;10089791;28;20053;-69
2023/08/12 11:17:42;;;;;;;4.47;3.40;;;28.00;99.90;;;;;;10061026;28;20037;-68
2023/08/12 11:22:37;;;;;;;5.80;3.75;;;27.90;99.90;;;;;;10082408;28;20482;-70
2023/08/12 11:27:27;;;;;;;5.40;3.42;;;27.90;99.90;;;;;;10081810;28;20029;-69
2023/08/12 11:32:19;;;;;;;4.60;2.85;;;28.10;99.90;;;;;;10070388;28;20388;-67
2023/08/12 11:37:10;;;;;;;4.38;3.25;;;28.10;99.90;;;;;;10080821;28;20044;-67
2023/08/12 11:42:00;;;;;;;4.25;3.22;;;28.10;99.90;;;;;;10070388;28;20027;-68
2023/08/12 11:46:51;;;;;;;4.07;3.10;;;28.20;99.90;;;;;;10073562;28;20032;-67
2023/08/12 11:51:48;;;;;;;7.53;3.80;;;28.40;99.90;;;;;;10066320;28;20402;-68
2023/08/12 11:56:39;;;;;;;4.90;2.90;;;28.40;99.90;;;;;;10077757;28;20037;-67
2023/08/12 12:01:29;;;;;;;3.60;2.53;;;28.60;99.90;;;;;;10076007;28;20028;-67
2023/08/12 12:06:36;;;;;;;3.08;2.40;;;28.70;99.90;;;;;;10082258;28;20031;-67
2023/08/12 12:11:27;;;;;;;2.85;2.20;;;28.90;99.90;;;;;;10081244;28;20165;-67
2023/08/12 12:16:17;;;;;;;4.53;2.50;;;29.10;99.90;;;;;;10060645;28;20112;-67
2023/08/12 12:21:09;;;;;;;4.55;2.67;;;29.20;99.90;;;;;;10093055;28;20033;-67
2023/08/12 12:26:03;;;;;;;2.85;1.90;;;29.30;99.90;;;;;;10094365;28;20017;-67
2023/08/12 12:30:54;;;;;;;5.78;2.35;;;29.50;99.90;;;;;;10095653;28;20048;-68
2023/08/12 12:35:45;;;;;;;5.28;2.40;;;29.60;99.90;;;;;;10096986;28;20017;-68
2023/08/12 12:40:37;;;;;;;3.15;2.30;;;29.70;99.90;;;;;;10096100;28;20102;-68
2023/08/12 12:45:28;;;;;;;3.55;2.08;;;29.50;99.90;;;;;;10078553;28;20025;-68
2023/08/12 12:50:19;;;;;;;3.00;1.90;;;29.40;99.90;;;;;;10096345;28;20048;-67
2023/08/12 12:55:09;;;;;;;3.03;2.20;;;29.50;99.90;;;;;;10096141;28;20017;-67
2023/08/12 13:00:00;;;;;;;3.50;2.10;;;29.70;99.90;;;;;;10061715;28;20024;-68
2023/08/12 13:04:51;;;;;;;4.75;2.00;;;29.80;99.90;;;;;;10096913;28;20509;-68
2023/08/12 13:09:41;;;;;;;3.42;2.20;;;29.80;99.90;;;;;;10095107;28;20090;-67
2023/08/12 13:14:33;;;;;;;3.85;2.25;;;29.80;99.90;;;;;;10098120;28;20049;-68
2023/08/12 13:19:23;;;;;;;3.55;2.10;;;30.00;99.90;;;;;;10077950;28;20036;-68
2023/08/12 13:24:15;;;;;;;3.55;2.45;;;30.10;99.90;;;;;;10094031;28;20021;-68
2023/08/12 13:29:06;;;;;;;6.85;2.40;;;30.40;99.90;;;;;;10088145;28;20094;-67
2023/08/12 13:33:59;;;;;;;3.42;2.33;;;30.40;99.90;;;;;;10088546;28;20032;-68
2023/08/12 13:38:50;;;;;;;3.47;2.07;;;30.20;99.90;;;;;;10072057;28;20491;-67
2023/08/12 13:43:41;;;;;;;3.85;2.40;;;29.90;99.90;;;;;;10074921;28;20033;-68
2023/08/12 13:48:35;;;;;;;7.80;3.25;;;29.60;99.90;;;;;;10095528;28;20045;-67
2023/08/12 13:53:25;;;;;;;8.88;3.33;;;29.30;99.90;;;;;;10095119;28;20020;-70
2023/08/12 13:58:16;;;;;;;7.82;2.58;;;28.40;99.90;;;;;;10102905;28;20557;-70
2023/08/12 14:03:07;;;;;;;3.45;2.30;;;26.30;99.90;;;;;;10102391;28;20025;-67
2023/08/12 14:07:58;;;;;;;4.75;2.28;;;24.70;99.90;;;;;;10101242;28;20033;-66
2023/08/12 14:12:49;;;;;;;4.40;2.42;;;24.60;99.90;;;;;;10102080;28;20532;-67
2023/08/12 14:17:40;;;;;;;3.35;1.60;;;24.70;99.90;;;;;;10102952;28;20157;-67
2023/08/12 14:22:30;;;;;;;3.25;2.00;;;24.70;99.90;;;;;;10101346;28;20138;-66
2023/08/12 14:27:21;;;;;;;2.90;2.00;;;24.50;99.90;;;;;;10101329;28;20033;-67
2023/08/12 14:32:12;;;;;;;3.33;1.73;;;24.50;99.90;;;;;;10100766;28;20047;-66
2023/08/12 14:37:03;;;;;;;4.45;2.30;;;24.60;99.90;;;;;;10101630;28;20032;-66
2023/08/12 14:41:53;;;;;;;8.38;3.58;;;24.80;99.90;;;;;;10094433;28;20387;-66
2023/08/12 14:46:44;;;;;;;4.85;2.25;;;24.80;99.90;;;;;;10101019;28;20020;-67
2023/08/12 14:51:35;;;;;;;3.90;2.42;;;24.90;99.90;;;;;;10082428;28;20132;-67
2023/08/12 14:56:25;;;;;;;5.97;3.40;;;25.00;99.90;;;;;;10100608;28;20033;-66
2023/08/12 15:01:17;;;;;;;4.47;2.90;;;24.90;99.90;;;;;;10100425;28;20514;-67
2023/08/12 15:06:08;;;;;;;5.38;3.95;;;25.20;99.90;;;;;;10099777;28;20025;-66
2023/08/12 15:10:59;;;;;;;5.72;4.20;;;25.60;99.90;;;;;;10099118;28;20044;-67
2023/08/12 15:15:52;;;;;;;6.50;4.10;;;25.90;99.90;;;;;;10100787;28;20091;-67
2023/08/12 15:20:43;;;;;;;7.30;3.92;;;25.90;99.90;;;;;;10099164;28;20036;-67
2023/08/12 15:25:34;;;;;;;8.75;6.88;;;25.90;99.90;;;;;;10099194;28;20029;-66
2023/08/12 15:30:24;;;;;;;6.40;4.57;;;25.90;99.90;;;;;;10098928;28;20410;-66
2023/08/12 15:35:15;;;;;;;10.23;6.57;;;26.10;99.90;;;;;;10098892;28;20029;-66
2023/08/12 15:40:07;;;;;;;6.85;4.82;;;26.20;99.90;;;;;;10098223;28;20040;-66
2023/08/12 15:44:58;;;;;;;5.40;4.15;;;26.30;99.90;;;;;;10098323;28;20040;-68
2023/08/12 15:49:48;;;;;;;5.22;4.03;;;26.30;99.90;;;;;;10095691;28;20491;-67
2023/08/12 15:54:39;;;;;;;5.65;3.95;;;26.20;99.90;;;;;;10095797;28;20025;-67
2023/08/12 15:59:30;;;;;;;5.18;3.60;;;26.10;99.90;;;;;;10096015;28;20017;-67
2023/08/12 16:04:20;;;;;;;6.80;3.90;;;26.10;99.90;;;;;;10082865;28;20025;-68
2023/08/12 16:09:13;;;;;;;6.03;3.70;;;26.10;99.90;;;;;;10088186;28;20056;-68
2023/08/12 16:14:03;;;;;;;5.28;4.28;;;26.30;99.90;;;;;;10092396;28;20457;-68
2023/08/12 16:18:54;;;;;;;5.28;3.97;;;26.30;99.90;;;;;;10092914;28;20044;-68
2023/08/12 16:23:44;;;;;;;6.32;4.90;;;26.20;99.90;;;;;;10096725;28;20387;-67
2023/08/12 16:28:35;;;;;;;8.88;3.70;;;26.30;99.90;;;;;;10097058;28;20229;-67
2023/08/12 16:33:26;;;;;;;5.97;4.13;;;26.20;99.90;;;;;;10077435;28;20131;-67
2023/08/12 16:38:19;;;;;;;8.77;3.75;;;26.20;99.90;;;;;;10097027;28;20033;-67
2023/08/12 16:43:09;;;;;;;7.38;4.18;;;26.30;99.90;;;;;;10096351;28;20029;-67
2023/08/12 16:48:00;;;;;;;6.80;4.53;;;26.60;99.90;;;;;;10078745;28;20029;-67
2023/08/12 16:52:51;;;;;;;8.13;4.07;;;27.20;99.90;;;;;;10096699;28;20024;-67
2023/08/12 16:57:41;;;;;;;5.85;3.80;;;27.10;99.90;;;;;;10096347;28;20399;-66
2023/08/12 17:02:32;;;;;;;5.50;3.95;;;27.10;99.90;;;;;;10096046;28;20060;-68
2023/08/12 17:07:23;;;;;;;6.30;4.25;;;26.90;99.90;;;;;;10095755;28;20517;-67
2023/08/12 17:12:14;;;;;;;5.47;3.45;;;26.70;99.90;;;;;;10097018;28;20049;-67
2023/08/12 17:17:04;;;;;;;4.32;3.80;;;26.60;99.90;;;;;;10096973;28;20017;-67
2023/08/12 17:21:55;;;;;;;5.13;3.92;;;26.50;99.90;;;;;;10095570;28;20103;-67
2023/08/12 17:26:46;;;;;;;4.47;3.33;;;26.40;99.90;;;;;;10089842;28;20435;-65
2023/08/12 17:31:36;;;;;;;6.90;3.50;;;26.40;99.90;;;;;;10102969;28;20041;-66
2023/08/12 17:36:27;;;;;;;16.70;10.45;;;26.50;99.90;;;;;;10085427;28;20151;-66
2023/08/12 17:41:18;;;;;;;8.75;4.32;;;26.50;99.90;;;;;;10103236;28;20037;-66
2023/08/12 17:46:12;;;;;;;5.68;3.33;;;26.40;99.90;;;;;;10103180;28;20017;-66
2023/08/12 17:51:03;;;;;;;6.70;3.30;;;26.20;99.90;;;;;;10102610;28;20064;-67
2023/08/12 17:55:53;;;;;;;5.68;3.53;;;26.10;99.90;;;;;;10103355;28;20029;-66
2023/08/12 18:00:44;;;;;;;7.28;5.00;;;26.00;99.90;;;;;;10102388;28;20116;-67
2023/08/12 18:05:34;;;;;;;5.03;3.75;;;26.00;99.90;;;;;;10102188;28;20021;-67
2023/08/12 18:10:26;;;;;;;4.75;3.67;;;26.10;99.90;;;;;;10100696;28;20064;-68
2023/08/12 18:15:17;;;;;;;5.18;3.80;;;26.10;99.90;;;;;;10104559;28;20126;-68
2023/08/12 18:20:08;;;;;;;6.32;3.80;;;26.00;99.90;;;;;;10101304;28;20062;-68
2023/08/12 18:24:59;;;;;;;5.20;3.55;;;25.90;99.90;;;;;;10097944;28;20025;-68
2023/08/12 18:29:53;;;;;;;5.68;3.70;;;26.10;99.90;;;;;;10101047;28;20632;-68
2023/08/12 18:34:43;;;;;;;6.15;3.35;;;26.10;99.90;;;;;;10102304;28;20112;-68
2023/08/12 18:39:34;;;;;;;6.50;4.57;;;26.00;99.90;;;;;;10100547;28;20546;-68
2023/08/12 18:44:25;;;;;;;6.30;4.47;;;26.00;99.90;;;;;;10100513;28;20029;-68
2023/08/12 18:49:15;;;;;;;5.95;3.35;;;25.90;99.90;;;;;;10100071;28;20029;-68
2023/08/12 18:54:06;;;;;;;6.50;3.83;;;25.90;99.90;;;;;;10100549;28;20029;-67
2023/08/12 18:58:57;;;;;;;7.78;4.30;;;25.80;99.90;;;;;;10099802;28;20090;-67
2023/08/12 19:03:47;;;;;;;7.00;4.00;;;25.80;99.90;;;;;;10099947;28;20090;-67
2023/08/12 19:08:38;;;;;;;18.10;6.05;;;25.90;99.90;;;;;;10099871;28;20106;-67
2023/08/12 19:13:29;;;;;;;5.90;3.72;;;25.90;99.90;;;;;;10100337;28;20154;-67
2023/08/12 19:18:21;;;;;;;7.07;3.97;;;25.80;99.90;;;;;;10100018;28;20056;-67
2023/08/12 19:23:12;;;;;;;8.30;3.65;;;25.80;99.90;;;;;;10098316;28;20029;-67
2023/08/12 19:28:03;;;;;;;9.05;3.85;;;25.80;99.90;;;;;;10099686;28;20509;-66
2023/08/12 19:32:54;;;;;;;5.85;3.42;;;25.70;99.90;;;;;;10098240;28;20057;-66
2023/08/12 19:37:46;;;;;;;7.63;4.00;;;25.80;99.90;;;;;;10099072;28;20032;-67
2023/08/12 19:42:36;;;;;;;7.38;4.13;;;25.70;99.90;;;;;;10098520;28;20108;-67
2023/08/12 19:47:27;;;;;;;6.07;3.47;;;25.70;99.90;;;;;;10098573;28;20104;-67
2023/08/12 19:52:17;;;;;;;11.38;4.10;;;25.60;99.90;;;;;;10092872;28;20518;-67
2023/08/12 19:57:08;;;;;;;5.88;4.13;;;25.80;99.90;;;;;;10071136;28;20131;-67
2023/08/12 20:01:59;;;;;;;5.47;4.13;;;25.70;99.90;;;;;;10090512;28;20524;-67
2023/08/12 20:06:50;;;;;;;7.15;4.38;;;25.70;99.90;;;;;;10081454;28;20526;-67
2023/08/12 20:11:40;;;;;;;8.70;4.97;;;25.70;99.90;;;;;;10091289;28;20053;-67
2023/08/12 20:16:31;;;;;;;7.47;4.20;;;25.50;99.90;;;;;;10090386;28;20036;-67
2023/08/12 20:21:23;;;;;;;7.65;4.63;;;25.50;99.90;;;;;;10095366;28;20121;-67
2023/08/12 20:26:13;;;;;;;7.13;4.05;;;25.60;99.90;;;;;;10097452;28;20387;-67
2023/08/12 20:31:04;;;;;;;8.63;4.05;;;25.50;99.90;;;;;;10096747;28;20052;-67
2023/08/12 20:35:54;;;;;;;7.75;4.93;;;25.50;99.90;;;;;;10097837;28;20025;-67
2023/08/12 20:40:45;;;;;;;7.43;4.50;;;25.50;99.90;;;;;;10096678;28;20021;-67
2023/08/12 20:45:36;;;;;;;7.53;4.30;;;25.50;99.90;;;;;;10096275;28;20032;-67
2023/08/12 20:50:26;;;;;;;5.00;4.50;;;25.50;99.90;;;;;;10096482;28;20519;-67
2023/08/12 20:55:17;;;;;;;9.70;6.15;;;25.40;99.90;;;;;;10097232;28;20029;-66
2023/08/12 21:00:09;;;;;;;6.68;4.80;;;25.40;99.90;;;;;;10096273;28;20044;-66
2023/08/12 21:05:00;;;;;;;5.35;4.72;;;25.40;99.90;;;;;;10102344;28;20051;-66
2023/08/12 21:09:50;;;;;;;8.23;5.00;;;25.40;99.90;;;;;;10103508;28;20496;-68
2023/08/12 21:14:41;;;;;;;5.80;4.63;;;25.40;99.90;;;;;;10097024;28;20048;-66
2023/08/12 21:19:31;;;;;;;7.75;4.53;;;25.30;99.90;;;;;;10103704;28;20029;-67
2023/08/12 21:24:22;;;;;;;6.63;4.57;;;25.20;99.90;;;;;;10104144;28;20025;-67
2023/08/12 21:29:13;;;;;;;4.38;3.80;;;25.10;99.90;;;;;;10103412;28;20037;-67
2023/08/12 21:34:04;;;;;;;6.93;4.15;;;25.10;99.90;;;;;;10103277;28;20052;-67
2023/08/12 21:38:54;;;;;;;6.10;4.45;;;25.10;99.90;;;;;;10103263;28;20124;-68
2023/08/12 21:43:45;;;;;;;4.18;3.53;;;25.10;99.90;;;;;;10085315;28;20079;-68
2023/08/12 21:48:36;;;;;;;5.45;4.07;;;25.10;99.90;;;;;;10102502;28;20276;-68
2023/08/12 21:53:26;;;;;;;5.63;3.90;;;25.00;99.90;;;;;;10102390;28;20391;-68
2023/08/12 21:58:17;;;;;;;7.65;3.83;;;25.00;99.90;;;;;;10102244;28;20060;-68
2023/08/12 22:03:07;;;;;;;5.35;3.55;;;25.00;99.90;;;;;;10102325;28;20567;-67
2023/08/12 22:07:59;;;;;;;3.60;3.25;;;24.90;99.90;;;;;;10102195;28;20036;-68
2023/08/12 22:12:50;;;;;;;9.95;4.53;;;24.80;99.90;;;;;;10084615;28;20514;-67
2023/08/12 22:17:42;;;;;;;6.00;3.88;;;24.90;99.90;;;;;;10102327;28;20021;-67
2023/08/12 22:22:32;;;;;;;6.70;4.03;;;24.80;99.90;;;;;;10101400;28;20494;-67
2023/08/12 22:27:23;;;;;;;6.25;4.07;;;24.80;99.90;;;;;;10083742;28;20029;-66
2023/08/12 22:32:14;;;;;;;11.00;6.60;;;24.70;99.90;;;;;;10100730;28;20119;-67
2023/08/12 22:37:04;;;;;;;7.88;5.10;;;24.70;99.90;;;;;;10101779;28;20024;-66
2023/08/12 22:41:55;;;;;;;8.40;4.85;;;24.60;99.90;;;;;;10100610;28;20029;-67
2023/08/12 22:46:45;;;;;;;6.20;4.82;;;24.70;99.90;;;;;;10101359;28;20354;-66
2023/08/12 22:51:36;;;;;;;7.22;5.25;;;24.60;99.90;;;;;;10100305;28;20445;-68
2023/08/12 22:56:27;;;;;;;6.45;4.55;;;24.60;99.90;;;;;;10101117;28;20071;-67
2023/08/12 23:01:17;;;;;;;5.20;4.32;;;24.60;99.90;;;;;;10100777;28;20079;-67
2023/08/12 23:06:08;;;;;;;7.45;5.20;;;24.60;99.90;;;;;;10096336;28;20474;-66
2023/08/12 23:10:59;;;;;;;6.80;4.85;;;24.60;99.90;;;;;;10099806;28;20041;-66
2023/08/12 23:15:50;;;;;;;6.13;4.75;;;24.50;99.90;;;;;;10101775;28;20025;-67
2023/08/12 23:20:40;;;;;;;7.18;4.80;;;24.50;99.90;;;;;;10099482;28;20032;-67
2023/08/12 23:25:31;;;;;;;6.53;5.10;;;24.50;99.90;;;;;;10079069;28;20509;-67
2023/08/12 23:30:22;;;;;;;11.05;5.40;;;24.50;99.90;;;;;;10099010;28;20041;-67
2023/08/12 23:35:13;;;;;;;7.05;5.43;;;24.50;99.90;;;;;;10099077;28;20036;-67
2023/08/12 23:40:04;;;;;;;11.15;7.45;;;24.50;99.90;;;;;;10098739;28;20021;-67
2023/08/12 23:44:54;;;;;;;5.85;4.38;;;24.50;99.90;;;;;;10099160;28;20107;-67
2023/08/12 23:49:48;;;;;;;6.55;4.88;;;24.40;99.90;;;;;;10098195;28;20506;-68
2023/08/12 23:54:39;;;;;;;5.80;4.70;;;24.30;99.90;;;;;;10097864;28;20013;-67
2023/08/12 23:59:30;;;;;;;6.03;4.75;;;24.40;99.90;;;;;;10097689;28;20036;-67
